sensor_id;sensor_type;location;lat;lon;timestamp;pressure;altitude;pressure_sealevel;temperature;humidity
55191;BME280;41070;50.360;18.742;2024-02-14T00:01:36;99205.90;;;1.45;96.59
55191;BME280;41070;50.360;18.742;2024-02-14T00:04:03;99208.16;;;1.49;96.58
55191;BME280;41070;50.360;18.742;2024-02-14T00:06:34;99208.27;;;1.52;96.86
55191;BME280;41070;50.360;18.742;2024-02-14T00:09:01;99208.15;;;1.53;96.37
55191;BME280;41070;50.360;18.742;2024-02-14T00:11:27;99211.75;;;1.47;96.27
55191;BME280;41070;50.360;18.742;2024-02-14T00:13:53;99210.38;;;1.43;96.13
55191;BME280;41070;50.360;18.742;2024-02-14T00:16:22;99211.83;;;1.35;96.01
55191;BME280;41070;50.360;18.742;2024-02-14T00:18:48;99215.78;;;1.30;96.42
55191;BME280;41070;50.360;18.742;2024-02-14T00:21:14;99211.47;;;1.28;96.43
55191;BME280;41070;50.360;18.742;2024-02-14T00:23:41;99207.82;;;1.26;96.43
55191;BME280;41070;50.360;18.742;2024-02-14T00:26:07;99208.77;;;1.29;97.00
55191;BME280;41070;50.360;18.742;2024-02-14T00:28:33;99211.95;;;1.33;97.25
55191;BME280;41070;50.360;18.742;2024-02-14T00:31:00;99211.31;;;1.34;97.20
55191;BME280;41070;50.360;18.742;2024-02-14T00:33:26;99214.45;;;1.34;96.95
55191;BME280;41070;50.360;18.742;2024-02-14T00:35:52;99212.71;;;1.34;97.00
55191;BME280;41070;50.360;18.742;2024-02-14T00:38:19;99214.25;;;1.36;96.99
55191;BME280;41070;50.360;18.742;2024-02-14T00:40:45;99218.01;;;1.32;96.94
55191;BME280;41070;50.360;18.742;2024-02-14T00:43:11;99215.73;;;1.28;96.65
55191;BME280;41070;50.360;18.742;2024-02-14T00:45:39;99217.21;;;1.22;96.67
55191;BME280;41070;50.360;18.742;2024-02-14T00:48:06;99216.48;;;1.14;96.45
55191;BME280;41070;50.360;18.742;2024-02-14T00:50:33;99222.86;;;1.09;96.64
55191;BME280;41070;50.360;18.742;2024-02-14T00:52:59;99218.33;;;1.08;97.18
55191;BME280;41070;50.360;18.742;2024-02-14T00:55:26;99222.43;;;1.10;97.12
55191;BME280;41070;50.360;18.742;2024-02-14T00:57:52;99220.80;;;1.15;97.66
55191;BME280;41070;50.360;18.742;2024-02-14T01:00:20;99216.53;;;1.20;97.72
55191;BME280;41070;50.360;18.742;2024-02-14T01:02:46;99217.69;;;1.22;97.58
55191;BME280;41070;50.360;18.742;2024-02-14T01:05:12;99217.53;;;1.26;97.79
55191;BME280;41070;50.360;18.742;2024-02-14T01:07:39;99215.53;;;1.31;97.87
55191;BME280;41070;50.360;18.742;2024-02-14T01:10:06;99208.71;;;1.33;97.67
55191;BME280;41070;50.360;18.742;2024-02-14T01:12:33;99202.76;;;1.31;97.51
55191;BME280;41070;50.360;18.742;2024-02-14T01:15:00;99198.50;;;1.31;97.45
55191;BME280;41070;50.360;18.742;2024-02-14T01:17:26;99196.20;;;1.33;97.66
55191;BME280;41070;50.360;18.742;2024-02-14T01:19:52;99195.89;;;1.39;97.72
55191;BME280;41070;50.360;18.742;2024-02-14T01:22:19;99194.50;;;1.48;98.37
55191;BME280;41070;50.360;18.742;2024-02-14T01:24:45;99187.73;;;1.57;98.44
55191;BME280;41070;50.360;18.742;2024-02-14T01:27:12;99179.39;;;1.61;98.46
55191;BME280;41070;50.360;18.742;2024-02-14T01:29:38;99185.02;;;1.65;98.38
55191;BME280;41070;50.360;18.742;2024-02-14T01:32:05;99184.00;;;1.70;98.36
55191;BME280;41070;50.360;18.742;2024-02-14T01:34:32;99185.17;;;1.69;97.92
55191;BME280;41070;50.360;18.742;2024-02-14T01:36:58;99183.42;;;1.69;97.85
55191;BME280;41070;50.360;18.742;2024-02-14T01:39:25;99190.11;;;1.74;98.58
55191;BME280;41070;50.360;18.742;2024-02-14T01:41:51;99190.20;;;1.77;97.82
55191;BME280;41070;50.360;18.742;2024-02-14T01:44:18;99184.46;;;1.74;97.65
55191;BME280;41070;50.360;18.742;2024-02-14T01:46:46;99189.05;;;1.73;97.76
55191;BME280;41070;50.360;18.742;2024-02-14T01:49:13;99189.11;;;1.73;97.72
55191;BME280;41070;50.360;18.742;2024-02-14T01:51:43;99188.21;;;1.73;97.92
55191;BME280;41070;50.360;18.742;2024-02-14T01:54:12;99187.35;;;1.77;97.60
55191;BME280;41070;50.360;18.742;2024-02-14T01:56:39;99182.96;;;1.80;98.02
55191;BME280;41070;50.360;18.742;2024-02-14T01:59:07;99179.61;;;1.86;98.09
55191;BME280;41070;50.360;18.742;2024-02-14T02:01:35;99185.28;;;1.83;97.87
55191;BME280;41070;50.360;18.742;2024-02-14T02:04:02;99185.65;;;1.84;97.91
55191;BME280;41070;50.360;18.742;2024-02-14T02:06:30;99184.09;;;1.89;98.35
55191;BME280;41070;50.360;18.742;2024-02-14T02:08:56;99180.92;;;1.90;97.95
55191;BME280;41070;50.360;18.742;2024-02-14T02:11:24;99183.00;;;1.85;97.31
55191;BME280;41070;50.360;18.742;2024-02-14T02:13:51;99184.19;;;1.77;97.38
55191;BME280;41070;50.360;18.742;2024-02-14T02:16:17;99192.20;;;1.80;97.85
55191;BME280;41070;50.360;18.742;2024-02-14T02:18:45;99185.91;;;1.83;97.98
55191;BME280;41070;50.360;18.742;2024-02-14T02:21:12;99191.46;;;1.79;97.41
55191;BME280;41070;50.360;18.742;2024-02-14T02:23:38;99191.56;;;1.64;96.74
55191;BME280;41070;50.360;18.742;2024-02-14T02:26:07;99199.96;;;1.60;97.43
55191;BME280;41070;50.360;18.742;2024-02-14T02:28:33;99200.86;;;1.60;97.52
55191;BME280;41070;50.360;18.742;2024-02-14T02:31:00;99199.70;;;1.58;97.77
55191;BME280;41070;50.360;18.742;2024-02-14T02:33:35;99206.77;;;1.60;98.18
55191;BME280;41070;50.360;18.742;2024-02-14T02:36:02;99201.33;;;1.63;98.37
55191;BME280;41070;50.360;18.742;2024-02-14T02:38:28;99201.48;;;1.65;98.18
55191;BME280;41070;50.360;18.742;2024-02-14T02:40:55;99202.77;;;1.72;98.74
55191;BME280;41070;50.360;18.742;2024-02-14T02:43:21;99201.23;;;1.75;98.55
55191;BME280;41070;50.360;18.742;2024-02-14T02:45:47;99195.39;;;1.71;97.97
55191;BME280;41070;50.360;18.742;2024-02-14T02:48:14;99196.92;;;1.68;97.63
55191;BME280;41070;50.360;18.742;2024-02-14T02:50:40;99201.16;;;1.63;97.57
55191;BME280;41070;50.360;18.742;2024-02-14T02:53:07;99201.97;;;1.58;97.62
55191;BME280;41070;50.360;18.742;2024-02-14T02:55:33;99202.30;;;1.58;98.02
55191;BME280;41070;50.360;18.742;2024-02-14T02:58:27;99205.94;;;1.56;97.54
55191;BME280;41070;50.360;18.742;2024-02-14T03:00:54;99208.00;;;1.49;97.22
55191;BME280;41070;50.360;18.742;2024-02-14T03:03:21;99209.87;;;1.42;96.90
55191;BME280;41070;50.360;18.742;2024-02-14T03:05:48;99215.57;;;1.36;96.90
55191;BME280;41070;50.360;18.742;2024-02-14T03:08:14;99218.21;;;1.30;97.08
55191;BME280;41070;50.360;18.742;2024-02-14T03:10:41;99217.90;;;1.26;97.06
55191;BME280;41070;50.360;18.742;2024-02-14T03:13:08;99217.85;;;1.21;96.65
55191;BME280;41070;50.360;18.742;2024-02-14T03:15:34;99216.90;;;1.15;96.75
55191;BME280;41070;50.360;18.742;2024-02-14T03:18:01;99215.42;;;1.08;96.96
55191;BME280;41070;50.360;18.742;2024-02-14T03:20:27;99218.11;;;0.99;96.83
55191;BME280;41070;50.360;18.742;2024-02-14T03:23:10;99221.74;;;0.92;97.01
55191;BME280;41070;50.360;18.742;2024-02-14T03:25:36;99224.02;;;0.85;96.83
55191;BME280;41070;50.360;18.742;2024-02-14T04:23:32;99251.82;;;0.30;97.95
55191;BME280;41070;50.360;18.742;2024-02-14T04:25:59;99248.86;;;0.34;97.68
55191;BME280;41070;50.360;18.742;2024-02-14T04:28:25;99249.98;;;0.37;97.65
55191;BME280;41070;50.360;18.742;2024-02-14T04:30:51;99254.04;;;0.38;97.06
55191;BME280;41070;50.360;18.742;2024-02-14T04:33:19;99255.73;;;0.37;97.72
55191;BME280;41070;50.360;18.742;2024-02-14T04:35:45;99253.31;;;0.38;97.45
55191;BME280;41070;50.360;18.742;2024-02-14T04:38:11;99256.95;;;0.39;97.13
55191;BME280;41070;50.360;18.742;2024-02-14T04:40:38;99255.83;;;0.37;97.27
55191;BME280;41070;50.360;18.742;2024-02-14T04:43:05;99254.09;;;0.36;97.10
55191;BME280;41070;50.360;18.742;2024-02-14T04:45:31;99255.70;;;0.33;96.81
55191;BME280;41070;50.360;18.742;2024-02-14T04:47:58;99253.81;;;0.34;97.34
55191;BME280;41070;50.360;18.742;2024-02-14T04:50:24;99253.29;;;0.33;97.13
55191;BME280;41070;50.360;18.742;2024-02-14T04:52:50;99251.17;;;0.31;96.77
55191;BME280;41070;50.360;18.742;2024-02-14T04:55:17;99250.84;;;0.27;96.93
55191;BME280;41070;50.360;18.742;2024-02-14T04:57:43;99252.00;;;0.25;96.80
55191;BME280;41070;50.360;18.742;2024-02-14T05:00:10;99243.79;;;0.24;97.23
55191;BME280;41070;50.360;18.742;2024-02-14T05:02:37;99246.33;;;0.28;97.84
55191;BME280;41070;50.360;18.742;2024-02-14T05:05:03;99242.39;;;0.33;98.07
55191;BME280;41070;50.360;18.742;2024-02-14T05:07:29;99240.88;;;0.38;98.17
55191;BME280;41070;50.360;18.742;2024-02-14T05:09:56;99237.62;;;0.40;98.27
55191;BME280;41070;50.360;18.742;2024-02-14T05:12:22;99240.05;;;0.38;98.11
55191;BME280;41070;50.360;18.742;2024-02-14T05:14:48;99243.30;;;0.37;97.96
55191;BME280;41070;50.360;18.742;2024-02-14T05:17:15;99246.56;;;0.38;97.95
55191;BME280;41070;50.360;18.742;2024-02-14T05:19:42;99242.26;;;0.38;98.26
55191;BME280;41070;50.360;18.742;2024-02-14T05:22:08;99243.63;;;0.38;97.64
55191;BME280;41070;50.360;18.742;2024-02-14T05:24:34;99245.31;;;0.39;97.73
55191;BME280;41070;50.360;18.742;2024-02-14T05:27:01;99245.83;;;0.37;97.61
55191;BME280;41070;50.360;18.742;2024-02-14T05:29:28;99248.86;;;0.34;97.46
55191;BME280;41070;50.360;18.742;2024-02-14T05:31:54;99249.73;;;0.33;98.21
55191;BME280;41070;50.360;18.742;2024-02-14T05:34:21;99250.81;;;0.33;97.69
55191;BME280;41070;50.360;18.742;2024-02-14T05:36:47;99249.71;;;0.32;97.49
55191;BME280;41070;50.360;18.742;2024-02-14T05:39:14;99251.39;;;0.30;98.34
55191;BME280;41070;50.360;18.742;2024-02-14T05:41:41;99252.80;;;0.29;98.12
55191;BME280;41070;50.360;18.742;2024-02-14T05:44:08;99249.30;;;0.27;97.86
55191;BME280;41070;50.360;18.742;2024-02-14T05:46:34;99251.68;;;0.26;97.85
55191;BME280;41070;50.360;18.742;2024-02-14T05:49:00;99251.36;;;0.24;97.61
55191;BME280;41070;50.360;18.742;2024-02-14T05:51:27;99251.37;;;0.24;97.98
55191;BME280;41070;50.360;18.742;2024-02-14T05:53:54;99247.14;;;0.24;97.86
55191;BME280;41070;50.360;18.742;2024-02-14T05:56:21;99250.58;;;0.26;97.91
55191;BME280;41070;50.360;18.742;2024-02-14T05:58:48;99252.42;;;0.26;97.96
55191;BME280;41070;50.360;18.742;2024-02-14T06:01:14;99255.95;;;0.26;97.83
55191;BME280;41070;50.360;18.742;2024-02-14T06:03:43;99256.84;;;0.28;97.99
55191;BME280;41070;50.360;18.742;2024-02-14T06:06:09;99257.02;;;0.31;98.54
55191;BME280;41070;50.360;18.742;2024-02-14T06:08:36;99259.29;;;0.32;98.55
55191;BME280;41070;50.360;18.742;2024-02-14T06:11:02;99259.41;;;0.35;98.42
55191;BME280;41070;50.360;18.742;2024-02-14T06:13:28;99261.95;;;0.40;99.10
55191;BME280;41070;50.360;18.742;2024-02-14T06:15:55;99268.18;;;0.46;99.21
55191;BME280;41070;50.360;18.742;2024-02-14T06:18:21;99270.94;;;0.50;99.19
55191;BME280;41070;50.360;18.742;2024-02-14T06:20:48;99269.10;;;0.54;98.79
55191;BME280;41070;50.360;18.742;2024-02-14T06:23:15;99270.48;;;0.56;98.81
55191;BME280;41070;50.360;18.742;2024-02-14T06:25:41;99267.32;;;0.57;98.52
55191;BME280;41070;50.360;18.742;2024-02-14T06:28:08;99266.64;;;0.58;98.60
55191;BME280;41070;50.360;18.742;2024-02-14T06:30:35;99267.11;;;0.59;98.67
55191;BME280;41070;50.360;18.742;2024-02-14T06:33:01;99271.13;;;0.61;98.79
55191;BME280;41070;50.360;18.742;2024-02-14T06:35:29;99274.34;;;0.64;99.03
55191;BME280;41070;50.360;18.742;2024-02-14T06:37:55;99276.89;;;0.68;99.24
55191;BME280;41070;50.360;18.742;2024-02-14T06:40:22;99274.36;;;0.70;98.78
55191;BME280;41070;50.360;18.742;2024-02-14T06:42:48;99273.16;;;0.71;98.64
55191;BME280;41070;50.360;18.742;2024-02-14T06:45:17;99272.73;;;0.71;98.39
55191;BME280;41070;50.360;18.742;2024-02-14T06:47:43;99273.67;;;0.73;98.30
55191;BME280;41070;50.360;18.742;2024-02-14T06:50:10;99275.11;;;0.76;98.44
55191;BME280;41070;50.360;18.742;2024-02-14T06:52:36;99276.27;;;0.81;98.77
55191;BME280;41070;50.360;18.742;2024-02-14T06:55:03;99282.98;;;0.86;98.66
55191;BME280;41070;50.360;18.742;2024-02-14T06:57:29;99286.36;;;0.92;98.78
55191;BME280;41070;50.360;18.742;2024-02-14T06:59:55;99286.17;;;0.97;98.68
55191;BME280;41070;50.360;18.742;2024-02-14T07:02:22;99288.64;;;1.02;98.69
55191;BME280;41070;50.360;18.742;2024-02-14T07:04:49;99290.13;;;1.07;98.65
55191;BME280;41070;50.360;18.742;2024-02-14T07:07:15;99286.96;;;1.14;99.04
55191;BME280;41070;50.360;18.742;2024-02-14T07:09:41;99290.60;;;1.21;98.56
55191;BME280;41070;50.360;18.742;2024-02-14T07:12:08;99289.45;;;1.26;98.73
55191;BME280;41070;50.360;18.742;2024-02-14T07:14:34;99283.50;;;1.30;98.91
55191;BME280;41070;50.360;18.742;2024-02-14T07:17:00;99280.70;;;1.35;98.62
55191;BME280;41070;50.360;18.742;2024-02-14T07:19:27;99277.59;;;1.40;98.61
55191;BME280;41070;50.360;18.742;2024-02-14T07:21:54;99279.49;;;1.45;99.08
55191;BME280;41070;50.360;18.742;2024-02-14T07:24:23;99279.85;;;1.52;98.95
55191;BME280;41070;50.360;18.742;2024-02-14T07:26:50;99277.79;;;1.62;99.60
55191;BME280;41070;50.360;18.742;2024-02-14T07:29:16;99282.56;;;1.71;99.53
55191;BME280;41070;50.360;18.742;2024-02-14T07:31:43;99281.61;;;1.76;99.29
55191;BME280;41070;50.360;18.742;2024-02-14T07:34:09;99284.52;;;1.79;99.01
55191;BME280;41070;50.360;18.742;2024-02-14T07:36:35;99283.18;;;1.84;99.08
55191;BME280;41070;50.360;18.742;2024-02-14T07:39:02;99280.48;;;1.90;99.63
55191;BME280;41070;50.360;18.742;2024-02-14T07:41:28;99283.77;;;1.99;99.72
55191;BME280;41070;50.360;18.742;2024-02-14T07:43:54;99282.98;;;2.05;99.41
55191;BME280;41070;50.360;18.742;2024-02-14T07:46:22;99281.17;;;2.08;99.31
55191;BME280;41070;50.360;18.742;2024-02-14T07:48:49;99287.30;;;2.16;99.41
55191;BME280;41070;50.360;18.742;2024-02-14T07:51:15;99282.34;;;2.22;99.47
55191;BME280;41070;50.360;18.742;2024-02-14T07:53:42;99283.79;;;2.30;99.53
55191;BME280;41070;50.360;18.742;2024-02-14T07:56:10;99285.77;;;2.36;99.43
55191;BME280;41070;50.360;18.742;2024-02-14T07:58:36;99286.21;;;2.42;99.39
55191;BME280;41070;50.360;18.742;2024-02-14T08:01:03;99290.51;;;2.50;99.61
55191;BME280;41070;50.360;18.742;2024-02-14T08:03:30;99290.43;;;2.57;99.60
55191;BME280;41070;50.360;18.742;2024-02-14T08:05:56;99292.53;;;2.60;99.38
55191;BME280;41070;50.360;18.742;2024-02-14T08:08:23;99293.06;;;2.69;99.64
55191;BME280;41070;50.360;18.742;2024-02-14T08:10:52;99293.56;;;2.76;99.52
55191;BME280;41070;50.360;18.742;2024-02-14T08:13:19;99297.38;;;2.82;99.62
55191;BME280;41070;50.360;18.742;2024-02-14T08:15:46;99296.86;;;2.89;99.56
55191;BME280;41070;50.360;18.742;2024-02-14T08:18:12;99298.48;;;2.93;99.31
55191;BME280;41070;50.360;18.742;2024-02-14T08:20:38;99299.34;;;2.97;99.29
55191;BME280;41070;50.360;18.742;2024-02-14T08:23:04;99299.89;;;3.04;99.39
55191;BME280;41070;50.360;18.742;2024-02-14T08:25:31;99299.95;;;3.10;99.39
55191;BME280;41070;50.360;18.742;2024-02-14T08:27:57;99302.23;;;3.16;99.25
55191;BME280;41070;50.360;18.742;2024-02-14T08:30:23;99303.36;;;3.22;99.27
55191;BME280;41070;50.360;18.742;2024-02-14T08:32:50;99299.98;;;3.29;99.31
55191;BME280;41070;50.360;18.742;2024-02-14T08:35:17;99299.50;;;3.35;99.22
55191;BME280;41070;50.360;18.742;2024-02-14T08:37:43;99299.55;;;3.38;98.68
55191;BME280;41070;50.360;18.742;2024-02-14T08:40:09;99299.77;;;3.42;99.05
55191;BME280;41070;50.360;18.742;2024-02-14T08:42:38;99289.90;;;3.52;99.26
55191;BME280;41070;50.360;18.742;2024-02-14T08:45:04;99288.89;;;3.59;98.99
55191;BME280;41070;50.360;18.742;2024-02-14T08:47:31;99291.18;;;3.69;99.29
55191;BME280;41070;50.360;18.742;2024-02-14T08:49:57;99293.36;;;3.78;99.33
55191;BME280;41070;50.360;18.742;2024-02-14T08:52:23;99288.62;;;3.86;99.19
55191;BME280;41070;50.360;18.742;2024-02-14T08:54:51;99285.70;;;3.93;99.13
55191;BME280;41070;50.360;18.742;2024-02-14T08:57:17;99286.14;;;4.01;98.90
55191;BME280;41070;50.360;18.742;2024-02-14T08:59:46;99289.40;;;4.04;98.34
55191;BME280;41070;50.360;18.742;2024-02-14T09:02:14;99287.53;;;4.09;98.51
55191;BME280;41070;50.360;18.742;2024-02-14T09:04:42;99286.55;;;4.13;98.24
55191;BME280;41070;50.360;18.742;2024-02-14T09:07:10;99287.20;;;4.20;98.25
55191;BME280;41070;50.360;18.742;2024-02-14T09:09:36;99287.86;;;4.27;98.11
55191;BME280;41070;50.360;18.742;2024-02-14T09:12:04;99284.04;;;4.33;97.79
55191;BME280;41070;50.360;18.742;2024-02-14T09:14:31;99280.28;;;4.36;97.74
55191;BME280;41070;50.360;18.742;2024-02-14T09:16:57;99281.50;;;4.45;97.95
55191;BME280;41070;50.360;18.742;2024-02-14T09:19:27;99283.82;;;4.54;97.74
55191;BME280;41070;50.360;18.742;2024-02-14T09:21:54;99288.86;;;4.58;97.05
55191;BME280;41070;50.360;18.742;2024-02-14T09:24:21;99286.95;;;4.63;97.07
55191;BME280;41070;50.360;18.742;2024-02-14T09:26:47;99288.46;;;4.73;97.56
55191;BME280;41070;50.360;18.742;2024-02-14T09:29:14;99288.34;;;4.85;97.73
55191;BME280;41070;50.360;18.742;2024-02-14T09:31:41;99289.00;;;4.95;96.97
55191;BME280;41070;50.360;18.742;2024-02-14T09:34:07;99289.86;;;5.02;96.81
55191;BME280;41070;50.360;18.742;2024-02-14T09:36:33;99286.86;;;5.07;96.58
55191;BME280;41070;50.360;18.742;2024-02-14T09:39:00;99285.52;;;5.12;95.83
55191;BME280;41070;50.360;18.742;2024-02-14T09:41:31;99283.11;;;5.19;96.20
55191;BME280;41070;50.360;18.742;2024-02-14T09:44:03;99280.52;;;5.29;96.30
55191;BME280;41070;50.360;18.742;2024-02-14T09:46:29;99284.48;;;5.37;96.23
55191;BME280;41070;50.360;18.742;2024-02-14T09:48:58;99280.70;;;5.45;95.89
55191;BME280;41070;50.360;18.742;2024-02-14T09:51:25;99280.50;;;5.53;95.52
55191;BME280;41070;50.360;18.742;2024-02-14T09:53:51;99279.73;;;5.64;95.43
55191;BME280;41070;50.360;18.742;2024-02-14T09:56:21;99280.73;;;5.67;94.41
55191;BME280;41070;50.360;18.742;2024-02-14T09:58:49;99282.77;;;5.72;94.70
55191;BME280;41070;50.360;18.742;2024-02-14T10:01:22;99284.23;;;5.75;94.69
55191;BME280;41070;50.360;18.742;2024-02-14T10:03:50;99281.20;;;5.81;94.24
55191;BME280;41070;50.360;18.742;2024-02-14T10:06:20;99276.08;;;5.85;94.09
55191;BME280;41070;50.360;18.742;2024-02-14T10:08:48;99274.08;;;5.89;93.84
55191;BME280;41070;50.360;18.742;2024-02-14T10:11:14;99270.21;;;5.95;93.45
55191;BME280;41070;50.360;18.742;2024-02-14T10:13:44;99261.23;;;6.02;93.75
55191;BME280;41070;50.360;18.742;2024-02-14T10:16:11;99260.09;;;6.06;92.46
55191;BME280;41070;50.360;18.742;2024-02-14T10:18:38;99266.20;;;6.11;92.61
55191;BME280;41070;50.360;18.742;2024-02-14T10:21:05;99265.17;;;6.20;92.85
55191;BME280;41070;50.360;18.742;2024-02-14T10:23:31;99261.99;;;6.28;92.50
55191;BME280;41070;50.360;18.742;2024-02-14T10:25:58;99256.30;;;6.31;91.90
55191;BME280;41070;50.360;18.742;2024-02-14T10:28:25;99255.94;;;6.36;91.71
55191;BME280;41070;50.360;18.742;2024-02-14T10:30:54;99252.96;;;6.41;91.23
55191;BME280;41070;50.360;18.742;2024-02-14T10:33:21;99246.61;;;6.47;91.02
55191;BME280;41070;50.360;18.742;2024-02-14T10:35:49;99246.52;;;6.52;90.95
55191;BME280;41070;50.360;18.742;2024-02-14T10:38:17;99246.59;;;6.56;90.64
55191;BME280;41070;50.360;18.742;2024-02-14T10:40:47;99245.34;;;6.59;90.47
55191;BME280;41070;50.360;18.742;2024-02-14T10:43:15;99243.23;;;6.64;89.71
55191;BME280;41070;50.360;18.742;2024-02-14T10:45:41;99241.91;;;6.73;89.71
55191;BME280;41070;50.360;18.742;2024-02-14T10:48:11;99237.89;;;6.74;88.97
55191;BME280;41070;50.360;18.742;2024-02-14T10:50:40;99234.05;;;6.72;88.95
55191;BME280;41070;50.360;18.742;2024-02-14T10:53:12;99231.75;;;6.70;88.69
55191;BME280;41070;50.360;18.742;2024-02-14T10:55:40;99231.23;;;6.70;88.81
55191;BME280;41070;50.360;18.742;2024-02-14T10:58:08;99228.95;;;6.67;88.02
55191;BME280;41070;50.360;18.742;2024-02-14T11:00:37;99231.89;;;6.66;88.10
55191;BME280;41070;50.360;18.742;2024-02-14T11:03:04;99233.00;;;6.78;88.44
55191;BME280;41070;50.360;18.742;2024-02-14T11:05:42;99226.66;;;6.92;88.00
55191;BME280;41070;50.360;18.742;2024-02-14T11:08:19;99228.81;;;7.07;88.04
55191;BME280;41070;50.360;18.742;2024-02-14T11:10:55;99223.89;;;7.17;88.08
55191;BME280;41070;50.360;18.742;2024-02-14T11:13:25;99226.79;;;7.29;88.02
55191;BME280;41070;50.360;18.742;2024-02-14T11:16:02;99224.63;;;7.40;87.46
55191;BME280;41070;50.360;18.742;2024-02-14T11:18:30;99230.05;;;7.48;86.92
55191;BME280;41070;50.360;18.742;2024-02-14T11:20:57;99222.85;;;7.55;85.79
55191;BME280;41070;50.360;18.742;2024-02-14T11:23:24;99216.90;;;7.56;85.31
55191;BME280;41070;50.360;18.742;2024-02-14T11:25:50;99215.55;;;7.57;85.28
55191;BME280;41070;50.360;18.742;2024-02-14T11:28:19;99213.09;;;7.59;84.07
55191;BME280;41070;50.360;18.742;2024-02-14T11:30:46;99207.56;;;7.61;83.52
55191;BME280;41070;50.360;18.742;2024-02-14T11:35:42;99194.54;;;7.66;83.53
55191;BME280;41070;50.360;18.742;2024-02-14T11:38:09;99191.54;;;7.65;83.69
55191;BME280;41070;50.360;18.742;2024-02-14T11:40:36;99192.70;;;7.67;83.05
55191;BME280;41070;50.360;18.742;2024-02-14T11:43:04;99190.58;;;7.64;82.78
55191;BME280;41070;50.360;18.742;2024-02-14T11:45:31;99186.20;;;7.65;82.84
55191;BME280;41070;50.360;18.742;2024-02-14T11:47:57;99191.54;;;7.67;82.62
55191;BME280;41070;50.360;18.742;2024-02-14T11:50:23;99188.21;;;7.67;81.71
55191;BME280;41070;50.360;18.742;2024-02-14T11:52:51;99184.42;;;7.70;81.42
55191;BME280;41070;50.360;18.742;2024-02-14T11:55:17;99178.64;;;7.73;81.93
55191;BME280;41070;50.360;18.742;2024-02-14T11:57:44;99177.84;;;7.75;81.96
55191;BME280;41070;50.360;18.742;2024-02-14T12:00:12;99177.14;;;7.75;80.94
55191;BME280;41070;50.360;18.742;2024-02-14T12:02:44;99174.20;;;7.74;80.93
55191;BME280;41070;50.360;18.742;2024-02-14T12:05:11;99173.48;;;7.74;81.22
55191;BME280;41070;50.360;18.742;2024-02-14T12:07:41;99177.55;;;7.82;82.11
55191;BME280;41070;50.360;18.742;2024-02-14T12:10:09;99176.27;;;7.87;82.13
55191;BME280;41070;50.360;18.742;2024-02-14T12:12:35;99172.95;;;7.86;81.86
55191;BME280;41070;50.360;18.742;2024-02-14T12:15:03;99173.91;;;7.82;81.57
55191;BME280;41070;50.360;18.742;2024-02-14T12:17:29;99174.21;;;7.79;81.61
55191;BME280;41070;50.360;18.742;2024-02-14T12:20:05;99171.84;;;7.82;81.20
55191;BME280;41070;50.360;18.742;2024-02-14T12:22:35;99163.59;;;7.87;81.41
55191;BME280;41070;50.360;18.742;2024-02-14T12:25:03;99165.48;;;7.94;81.94
55191;BME280;41070;50.360;18.742;2024-02-14T12:27:34;99160.86;;;7.99;82.27
55191;BME280;41070;50.360;18.742;2024-02-14T12:30:05;99158.20;;;8.04;81.61
55191;BME280;41070;50.360;18.742;2024-02-14T12:32:32;99155.61;;;8.05;81.11
55191;BME280;41070;50.360;18.742;2024-02-14T12:34:59;99154.36;;;8.07;81.30
55191;BME280;41070;50.360;18.742;2024-02-14T12:37:25;99154.41;;;8.10;81.10
55191;BME280;41070;50.360;18.742;2024-02-14T12:39:52;99155.59;;;8.11;80.76
55191;BME280;41070;50.360;18.742;2024-02-14T12:42:19;99154.64;;;8.14;80.78
55191;BME280;41070;50.360;18.742;2024-02-14T12:44:54;99156.02;;;8.14;80.64
55191;BME280;41070;50.360;18.742;2024-02-14T12:47:23;99153.36;;;8.13;80.40
55191;BME280;41070;50.360;18.742;2024-02-14T12:49:50;99158.46;;;8.14;80.47
55191;BME280;41070;50.360;18.742;2024-02-14T12:52:17;99156.86;;;8.16;79.82
55191;BME280;41070;50.360;18.742;2024-02-14T12:54:43;99156.58;;;8.16;79.97
55191;BME280;41070;50.360;18.742;2024-02-14T12:57:10;99155.36;;;8.14;79.53
55191;BME280;41070;50.360;18.742;2024-02-14T12:59:37;99151.63;;;8.07;78.84
55191;BME280;41070;50.360;18.742;2024-02-14T13:02:04;99148.16;;;8.01;78.59
55191;BME280;41070;50.360;18.742;2024-02-14T13:04:32;99154.92;;;7.98;78.68
55191;BME280;41070;50.360;18.742;2024-02-14T13:06:59;99148.76;;;7.95;78.30
55191;BME280;41070;50.360;18.742;2024-02-14T13:09:25;99152.46;;;7.93;78.38
55191;BME280;41070;50.360;18.742;2024-02-14T13:11:52;99150.62;;;7.94;78.85
55191;BME280;41070;50.360;18.742;2024-02-14T13:14:18;99151.61;;;7.98;79.59
55191;BME280;41070;50.360;18.742;2024-02-14T13:16:51;99151.85;;;8.02;79.81
55191;BME280;41070;50.360;18.742;2024-02-14T13:19:17;99148.45;;;8.06;79.89
55191;BME280;41070;50.360;18.742;2024-02-14T13:21:46;99146.01;;;8.07;79.61
55191;BME280;41070;50.360;18.742;2024-02-14T13:24:13;99145.59;;;8.07;79.62
55191;BME280;41070;50.360;18.742;2024-02-14T13:26:39;99146.38;;;8.09;79.60
55191;BME280;41070;50.360;18.742;2024-02-14T13:29:06;99145.91;;;8.13;79.53
55191;BME280;41070;50.360;18.742;2024-02-14T13:31:33;99145.26;;;8.13;79.15
55191;BME280;41070;50.360;18.742;2024-02-14T13:33:59;99139.30;;;8.11;78.84
55191;BME280;41070;50.360;18.742;2024-02-14T13:36:26;99140.17;;;8.08;78.75
55191;BME280;41070;50.360;18.742;2024-02-14T13:38:52;99139.86;;;8.08;78.79
55191;BME280;41070;50.360;18.742;2024-02-14T13:41:21;99144.31;;;8.07;78.83
55191;BME280;41070;50.360;18.742;2024-02-14T13:43:54;99139.71;;;8.03;78.65
55191;BME280;41070;50.360;18.742;2024-02-14T13:46:45;99137.96;;;8.03;79.09
55191;BME280;41070;50.360;18.742;2024-02-14T13:49:12;99135.55;;;7.99;78.76
55191;BME280;41070;50.360;18.742;2024-02-14T13:51:41;99129.48;;;7.91;79.20
55191;BME280;41070;50.360;18.742;2024-02-14T13:54:08;99127.58;;;7.90;79.62
55191;BME280;41070;50.360;18.742;2024-02-14T13:56:35;99133.84;;;7.89;79.65
55191;BME280;41070;50.360;18.742;2024-02-14T13:59:04;99129.51;;;7.83;79.54